Time;durP1;ratioP1;P1;durP2;ratioP2;P2;SDS_P1;SDS_P2;PMS_P1;PMS_P2;Temp;Humidity;BMP_temperature;BMP_pressure;BME280_temperature;BME280_humidity;BME280_pressure;Samples;Min_cycle;Max_cycle;Signal;HPM_P1;HPM_P2
2023/10/03 00:01:36;;;;;;;17.92;11.63;;;;;;;;;;5054983;28;20032;-59
2023/10/03 00:04:02;;;;;;;;;;;;;;;;;;5055015;28;20060;-59
2023/10/03 00:06:28;;;;;;;21.05;12.50;;;;;;;;;;5054498;28;19905;-59
2023/10/03 00:08:54;;;;;;;19.05;11.40;;;;;;;;;;5054408;28;20025;-59
2023/10/03 00:11:22;;;;;;;24.10;12.77;;;;;;;;;;5055303;28;20037;-59
2023/10/03 00:13:50;;;;;;;23.15;12.70;;;;;;;;;;5054073;28;20533;-59
2023/10/03 00:16:16;;;;;;;22.13;11.93;;;;;;;;;;5054859;28;20055;-59
2023/10/03 00:18:42;;;;;;;27.58;13.30;;;;;;;;;;5054253;28;20062;-59
2023/10/03 00:21:08;;;;;;;18.52;13.23;;;;;;;;;;5054495;28;20478;-59
2023/10/03 00:23:34;;;;;;;24.48;12.65;;;;;;;;;;5053988;28;20025;-59
2023/10/03 00:26:00;;;;;;;20.70;13.20;;;;;;;;;;5054069;28;20103;-59
2023/10/03 00:28:26;;;;;;;22.90;13.60;;;;;;;;;;5054529;28;20371;-59
2023/10/03 00:30:52;;;;;;;20.10;13.07;;;;;;;;;;5054105;28;20025;-59
2023/10/03 00:33:21;;;;;;;20.88;12.55;;;;;;;;;;5054517;28;20032;-59
2023/10/03 00:35:47;;;;;;;19.67;11.35;;;;;;;;;;5054751;28;20493;-59
2023/10/03 00:38:13;;;;;;;19.45;11.77;;;;;;;;;;5053958;28;20052;-59
2023/10/03 00:40:43;;;;;;;22.85;13.63;;;;;;;;;;5053925;28;20036;-59
2023/10/03 00:43:11;;;;;;;22.65;12.25;;;;;;;;;;5053896;28;20458;-59
2023/10/03 00:45:37;;;;;;;18.35;11.40;;;;;;;;;;5054352;28;20100;-59
2023/10/03 00:48:06;;;;;;;21.77;12.02;;;;;;;;;;5054262;28;20029;-59
2023/10/03 00:50:34;;;;;;;21.40;12.43;;;;;;;;;;5054023;28;20095;-59
2023/10/03 00:53:04;;;;;;;19.67;11.20;;;;;;;;;;5053710;28;20075;-59
2023/10/03 00:55:33;;;;;;;18.48;11.00;;;;;;;;;;5054173;28;20021;-59
2023/10/03 01:00:43;;;;;;;16.90;11.27;;;;;;;;;;5053732;28;20474;-59
2023/10/03 01:03:24;;;;;;;14.50;9.30;;;;;;;;;;5054351;28;20024;-59
2023/10/03 01:05:54;;;;;;;14.05;9.25;;;;;;;;;;5053804;28;20021;-59
2023/10/03 01:08:21;;;;;;;16.88;10.75;;;;;;;;;;5054224;28;20072;-59
2023/10/03 01:10:47;;;;;;;15.93;10.30;;;;;;;;;;5053566;28;20463;-59
2023/10/03 01:13:13;;;;;;;16.38;10.68;;;;;;;;;;5053163;28;20021;-59
2023/10/03 01:15:39;;;;;;;16.77;10.25;;;;;;;;;;5053490;28;20035;-59
2023/10/03 01:18:09;;;;;;;16.75;9.48;;;;;;;;;;5053423;28;20028;-59
2023/10/03 01:20:42;;;;;;;18.23;9.38;;;;;;;;;;5053492;28;20021;-59
2023/10/03 01:23:12;;;;;;;16.08;9.65;;;;;;;;;;5053754;28;20129;-59
2023/10/03 01:25:42;;;;;;;15.10;9.40;;;;;;;;;;5053710;28;20541;-59
2023/10/03 01:28:09;;;;;;;17.60;10.43;;;;;;;;;;5053296;28;20029;-59
2023/10/03 01:30:36;;;;;;;13.23;9.98;;;;;;;;;;5053918;28;20359;-59
2023/10/03 01:33:02;;;;;;;15.35;10.20;;;;;;;;;;5053773;28;20458;-59
2023/10/03 01:35:28;;;;;;;20.35;9.93;;;;;;;;;;5053305;28;20102;-59
2023/10/03 01:37:54;;;;;;;14.48;9.95;;;;;;;;;;5053979;28;20021;-59
2023/10/03 01:40:20;;;;;;;18.05;10.05;;;;;;;;;;5053275;28;20112;-59
2023/10/03 01:42:47;;;;;;;15.05;9.25;;;;;;;;;;5053223;28;20037;-59
2023/10/03 01:45:17;;;;;;;15.75;9.73;;;;;;;;;;5053215;28;20017;-59
2023/10/03 01:47:45;;;;;;;15.05;10.35;;;;;;;;;;5053425;28;20474;-59
2023/10/03 01:50:12;;;;;;;19.10;10.40;;;;;;;;;;5053700;28;20032;-59
2023/10/03 01:52:40;;;;;;;15.55;10.20;;;;;;;;;;5053638;28;20447;-59
2023/10/03 01:55:06;;;;;;;22.17;10.20;;;;;;;;;;5053059;28;20455;-59
2023/10/03 01:57:33;;;;;;;16.05;9.80;;;;;;;;;;5053370;28;20053;-59
2023/10/03 01:59:59;;;;;;;18.70;10.18;;;;;;;;;;5053078;28;20060;-59
2023/10/03 02:02:25;;;;;;;17.83;12.05;;;;;;;;;;5054210;28;20063;-59
2023/10/03 02:04:52;;;;;;;15.05;8.85;;;;;;;;;;5057345;28;20053;-59
2023/10/03 02:07:18;;;;;;;17.35;9.93;;;;;;;;;;5057627;28;20020;-59
2023/10/03 02:09:44;;;;;;;14.75;10.15;;;;;;;;;;5057248;28;20029;-59
2023/10/03 02:12:10;;;;;;;16.88;9.23;;;;;;;;;;5057088;28;20378;-59
2023/10/03 02:14:39;;;;;;;15.88;9.38;;;;;;;;;;5056681;28;20037;-59
2023/10/03 02:17:05;;;;;;;19.67;11.55;;;;;;;;;;5056615;28;20032;-59
2023/10/03 02:19:31;;;;;;;18.00;10.80;;;;;;;;;;5057174;28;20032;-59
2023/10/03 02:21:59;;;;;;;17.85;9.93;;;;;;;;;;5056513;28;20116;-59
2023/10/03 02:24:25;;;;;;;15.30;9.75;;;;;;;;;;5056726;28;20025;-59
2023/10/03 02:26:51;;;;;;;16.63;9.32;;;;;;;;;;5056348;28;20029;-59
2023/10/03 02:29:17;;;;;;;14.93;10.73;;;;;;;;;;5057032;28;20366;-59
2023/10/03 02:31:44;;;;;;;16.58;9.35;;;;;;;;;;5056024;28;20099;-59
2023/10/03 02:34:11;;;;;;;20.90;10.98;;;;;;;;;;5056075;28;20040;-59
2023/10/03 02:36:37;;;;;;;15.93;10.02;;;;;;;;;;5056810;28;20046;-59
2023/10/03 02:39:06;;;;;;;16.33;9.90;;;;;;;;;;5056174;28;20027;-59
2023/10/03 02:41:33;;;;;;;18.08;8.85;;;;;;;;;;5056921;28;20039;-59
2023/10/03 02:43:59;;;;;;;12.77;8.73;;;;;;;;;;5056094;28;20096;-59
2023/10/03 02:46:26;;;;;;;19.42;10.40;;;;;;;;;;5056079;28;20060;-59
2023/10/03 02:48:55;;;;;;;14.95;9.68;;;;;;;;;;5055931;28;20537;-59
2023/10/03 02:51:21;;;;;;;16.98;9.57;;;;;;;;;;5056491;28;20433;-59
2023/10/03 02:53:47;;;;;;;16.02;9.75;;;;;;;;;;5055977;28;20064;-59
2023/10/03 02:56:14;;;;;;;22.27;10.52;;;;;;;;;;5056023;28;20051;-59
2023/10/03 02:58:40;;;;;;;20.10;10.52;;;;;;;;;;5055798;28;20459;-59
2023/10/03 03:01:06;;;;;;;15.35;10.07;;;;;;;;;;5055806;28;20063;-59
2023/10/03 03:03:32;;;;;;;17.20;9.32;;;;;;;;;;5056310;28;20037;-59
2023/10/03 03:06:03;;;;;;;13.30;10.10;;;;;;;;;;5055696;28;20021;-59
2023/10/03 03:08:29;;;;;;;18.30;10.07;;;;;;;;;;5056441;28;20037;-59
2023/10/03 03:10:57;;;;;;;14.68;8.77;;;;;;;;;;5056368;28;20043;-59
2023/10/03 03:13:23;;;;;;;14.13;9.02;;;;;;;;;;5055220;28;20389;-59
2023/10/03 03:16:05;;;;;;;15.75;9.10;;;;;;;;;;5055085;28;20021;-59
2023/10/03 03:18:39;;;;;;;15.15;9.40;;;;;;;;;;5055991;28;20099;-59
2023/10/03 03:21:08;;;;;;;16.15;9.48;;;;;;;;;;5055713;28;20462;-59
2023/10/03 03:23:39;;;;;;;14.65;9.45;;;;;;;;;;5055891;28;20025;-59
2023/10/03 03:26:21;;;;;;;;;;;;;;;;;;5056576;28;20360;-59
2023/10/03 03:28:49;;;;;;;18.05;8.60;;;;;;;;;;5055217;28;19996;-59
2023/10/03 03:31:22;;;;;;;16.40;9.40;;;;;;;;;;5055314;28;20033;-59
2023/10/03 03:33:57;;;;;;;14.25;9.10;;;;;;;;;;5055734;28;20408;-59
2023/10/03 03:36:29;;;;;;;18.00;9.55;;;;;;;;;;5055252;28;20056;-59
2023/10/03 03:38:56;;;;;;;16.33;8.98;;;;;;;;;;5055702;28;20024;-60
2023/10/03 03:41:22;;;;;;;15.43;8.75;;;;;;;;;;5055084;28;20021;-59
2023/10/03 03:43:49;;;;;;;14.40;8.75;;;;;;;;;;5054956;28;20056;-59
2023/10/03 03:46:15;;;;;;;18.20;9.77;;;;;;;;;;5054915;28;20017;-59
2023/10/03 03:48:41;;;;;;;11.40;7.97;;;;;;;;;;5055143;28;20139;-59
2023/10/03 03:51:09;;;;;;;16.70;8.65;;;;;;;;;;5055406;28;20036;-59
2023/10/03 03:53:36;;;;;;;15.85;8.45;;;;;;;;;;5055387;28;20064;-59
2023/10/03 03:56:07;;;;;;;14.32;8.50;;;;;;;;;;5054551;28;20060;-59
2023/10/03 03:58:33;;;;;;;11.70;8.45;;;;;;;;;;5054455;28;20486;-59
2023/10/03 04:01:00;;;;;;;15.90;8.35;;;;;;;;;;5055241;28;20021;-59
2023/10/03 04:03:34;;;;;;;12.45;8.02;;;;;;;;;;5054761;28;20052;-59
2023/10/03 04:06:01;;;;;;;13.30;8.60;;;;;;;;;;5055224;28;20052;-59
2023/10/03 04:08:27;;;;;;;11.23;8.77;;;;;;;;;;5054829;28;20371;-59
2023/10/03 04:10:53;;;;;;;13.13;8.80;;;;;;;;;;5055415;28;20029;-59
2023/10/03 04:13:20;;;;;;;15.05;8.23;;;;;;;;;;5055047;28;20078;-59
2023/10/03 04:15:47;;;;;;;12.35;7.85;;;;;;;;;;5054688;28;20179;-59
2023/10/03 04:18:15;;;;;;;13.07;8.10;;;;;;;;;;5054694;28;20070;-59
2023/10/03 04:20:44;;;;;;;12.80;8.05;;;;;;;;;;5054979;28;20030;-59
2023/10/03 04:23:11;;;;;;;11.85;7.70;;;;;;;;;;5054308;28;20025;-59
2023/10/03 04:25:40;;;;;;;11.02;7.78;;;;;;;;;;5054408;28;20052;-59
2023/10/03 04:28:08;;;;;;;10.73;7.13;;;;;;;;;;5054516;28;20455;-59
2023/10/03 04:30:35;;;;;;;15.23;7.72;;;;;;;;;;5054807;28;20047;-59
2023/10/03 04:33:01;;;;;;;10.00;7.18;;;;;;;;;;5054971;28;20029;-59
2023/10/03 04:35:28;;;;;;;9.60;6.32;;;;;;;;;;5054034;28;20099;-59
2023/10/03 04:37:57;;;;;;;10.15;6.78;;;;;;;;;;5054082;28;20033;-59
2023/10/03 04:40:28;;;;;;;11.27;7.38;;;;;;;;;;5054873;28;20029;-59
2023/10/03 04:42:57;;;;;;;11.52;7.18;;;;;;;;;;5054498;28;20056;-59
2023/10/03 04:45:23;;;;;;;15.02;7.22;;;;;;;;;;5053615;28;20025;-59
2023/10/03 04:47:50;;;;;;;10.52;6.80;;;;;;;;;;5053907;28;20025;-59
2023/10/03 04:50:18;;;;;;;10.65;6.57;;;;;;;;;;5054426;28;20055;-59
2023/10/03 04:52:48;;;;;;;9.75;6.63;;;;;;;;;;5053881;28;20032;-59
2023/10/03 04:55:14;;;;;;;9.80;6.87;;;;;;;;;;5053957;28;20056;-59
2023/10/03 04:57:41;;;;;;;11.95;7.30;;;;;;;;;;5053980;28;20028;-59
2023/10/03 05:00:08;;;;;;;10.93;6.35;;;;;;;;;;5054332;28;20363;-59
2023/10/03 05:02:34;;;;;;;11.55;6.75;;;;;;;;;;5053664;28;20178;-59
2023/10/03 05:05:00;;;;;;;12.60;7.50;;;;;;;;;;5053708;28;20052;-59
2023/10/03 05:07:25;;;;;;;9.38;6.03;;;;;;;;;;5053509;28;20056;-59
2023/10/03 05:09:52;;;;;;;12.52;6.20;;;;;;;;;;5054047;28;20029;-59
2023/10/03 05:12:18;;;;;;;10.60;6.80;;;;;;;;;;5053566;28;20374;-59
2023/10/03 05:14:48;;;;;;;10.05;6.45;;;;;;;;;;5053608;28;20371;-59
2023/10/03 05:17:15;;;;;;;8.23;5.93;;;;;;;;;;5053517;28;20028;-59
2023/10/03 05:19:41;;;;;;;10.52;6.60;;;;;;;;;;5053568;28;20291;-59
2023/10/03 05:22:08;;;;;;;8.57;6.57;;;;;;;;;;5053428;28;20494;-59
2023/10/03 05:24:34;;;;;;;13.55;7.03;;;;;;;;;;5053537;28;20099;-59
2023/10/03 05:27:00;;;;;;;11.43;5.90;;;;;;;;;;5054202;28;20105;-59
2023/10/03 05:29:27;;;;;;;10.75;7.03;;;;;;;;;;5053414;28;20064;-59
2023/10/03 05:31:54;;;;;;;8.25;6.55;;;;;;;;;;5054250;28;20409;-59
2023/10/03 05:34:20;;;;;;;9.32;6.18;;;;;;;;;;5053590;28;20115;-59
2023/10/03 05:36:46;;;;;;;13.55;6.68;;;;;;;;;;5053581;28;20072;-59
2023/10/03 05:39:12;;;;;;;12.95;6.28;;;;;;;;;;5057487;28;20433;-59
2023/10/03 05:41:41;;;;;;;9.80;6.65;;;;;;;;;;5057917;28;20078;-59
2023/10/03 05:44:11;;;;;;;11.27;6.63;;;;;;;;;;5058140;28;20087;-59
2023/10/03 05:46:37;;;;;;;;;;;;;;;;;;5058233;28;20032;-59
2023/10/03 05:49:03;;;;;;;8.35;6.10;;;;;;;;;;5057647;28;19948;-59
2023/10/03 05:51:29;;;;;;;8.73;6.35;;;;;;;;;;5057104;28;20021;-59
2023/10/03 05:53:55;;;;;;;10.10;6.93;;;;;;;;;;5056764;28;20035;-59
2023/10/03 05:56:21;;;;;;;14.45;7.03;;;;;;;;;;5057041;28;20048;-59
2023/10/03 05:58:47;;;;;;;10.07;6.63;;;;;;;;;;5057118;28;20032;-59
2023/10/03 06:01:13;;;;;;;11.35;6.35;;;;;;;;;;5057041;28;20524;-59
2023/10/03 06:03:39;;;;;;;8.77;5.65;;;;;;;;;;5056673;28;20455;-59
2023/10/03 06:06:06;;;;;;;8.02;5.47;;;;;;;;;;5057514;28;20082;-59
2023/10/03 06:08:32;;;;;;;9.50;6.28;;;;;;;;;;5056901;28;20032;-59
2023/10/03 06:11:00;;;;;;;11.18;5.78;;;;;;;;;;5057696;28;20070;-59
2023/10/03 06:13:26;;;;;;;7.25;5.63;;;;;;;;;;5056944;28;20025;-59
2023/10/03 06:15:52;;;;;;;10.38;6.65;;;;;;;;;;5057322;28;20422;-59
2023/10/03 06:18:19;;;;;;;8.35;6.07;;;;;;;;;;5057201;28;20053;-59
2023/10/03 06:20:45;;;;;;;9.38;5.88;;;;;;;;;;5057201;28;20032;-59
2023/10/03 06:23:11;;;;;;;8.85;5.97;;;;;;;;;;5056481;28;20033;-59
2023/10/03 06:25:37;;;;;;;10.23;7.10;;;;;;;;;;5056598;28;20370;-59
2023/10/03 06:28:03;;;;;;;7.13;5.03;;;;;;;;;;5056861;28;20025;-59
2023/10/03 06:30:29;;;;;;;8.70;5.85;;;;;;;;;;5056767;28;20379;-59
2023/10/03 06:32:55;;;;;;;7.70;5.05;;;;;;;;;;5056505;28;20025;-59
2023/10/03 06:35:21;;;;;;;6.63;5.03;;;;;;;;;;5056290;28;20052;-59
2023/10/03 06:37:48;;;;;;;12.65;5.57;;;;;;;;;;5056363;28;20021;-59
2023/10/03 06:40:16;;;;;;;8.25;5.60;;;;;;;;;;5056633;28;20021;-59
2023/10/03 06:42:42;;;;;;;8.48;5.70;;;;;;;;;;5056714;28;20424;-59
2023/10/03 06:45:09;;;;;;;8.93;5.75;;;;;;;;;;5055930;28;20025;-59
2023/10/03 06:47:35;;;;;;;10.63;6.35;;;;;;;;;;5056345;28;20059;-59
2023/10/03 06:50:05;;;;;;;8.90;6.47;;;;;;;;;;5056567;28;20033;-59
2023/10/03 06:52:32;;;;;;;9.50;6.45;;;;;;;;;;5056023;28;20029;-59
2023/10/03 06:54:58;;;;;;;10.30;6.32;;;;;;;;;;5056030;28;20033;-59
2023/10/03 06:57:24;;;;;;;8.05;5.78;;;;;;;;;;5055964;28;20017;-59
2023/10/03 06:59:50;;;;;;;11.30;5.68;;;;;;;;;;5056256;28;20051;-59
2023/10/03 07:02:18;;;;;;;7.82;5.28;;;;;;;;;;5055848;28;20075;-59
2023/10/03 07:04:44;;;;;;;10.25;6.30;;;;;;;;;;5056655;28;20056;-59
2023/10/03 07:07:10;;;;;;;8.93;5.95;;;;;;;;;;5056004;28;20484;-59
2023/10/03 07:09:38;;;;;;;8.40;6.20;;;;;;;;;;5056316;28;20166;-59
2023/10/03 07:12:07;;;;;;;9.07;6.60;;;;;;;;;;5056184;28;20036;-59
2023/10/03 07:14:35;;;;;;;9.23;5.78;;;;;;;;;;5055674;28;20021;-59
2023/10/03 07:17:02;;;;;;;9.32;5.43;;;;;;;;;;5055588;28;20170;-59
2023/10/03 07:19:30;;;;;;;11.98;6.45;;;;;;;;;;5056192;28;20132;-59
2023/10/03 07:21:56;;;;;;;8.80;5.97;;;;;;;;;;5056000;28;20025;-59
2023/10/03 07:24:24;;;;;;;8.15;5.72;;;;;;;;;;5056006;28;20057;-59
2023/10/03 07:26:50;;;;;;;7.93;5.18;;;;;;;;;;5055627;28;20029;-59
2023/10/03 07:29:17;;;;;;;10.95;6.80;;;;;;;;;;5055940;28;20415;-59
2023/10/03 07:31:43;;;;;;;6.95;5.10;;;;;;;;;;5055337;28;20382;-59
2023/10/03 07:34:17;;;;;;;7.90;5.10;;;;;;;;;;5055122;28;20108;-60
2023/10/03 07:36:43;;;;;;;11.48;5.97;;;;;;;;;;5055566;28;20021;-59
2023/10/03 07:39:09;;;;;;;7.60;4.97;;;;;;;;;;5055674;28;20443;-59
2023/10/03 07:41:35;;;;;;;10.38;6.15;;;;;;;;;;5055112;28;20477;-59
2023/10/03 07:44:01;;;;;;;9.75;5.13;;;;;;;;;;5055361;28;20070;-59
2023/10/03 07:46:27;;;;;;;8.77;5.65;;;;;;;;;;5054705;28;20485;-59
2023/10/03 07:48:53;;;;;;;7.57;5.38;;;;;;;;;;5055149;28;20072;-60
2023/10/03 07:51:20;;;;;;;9.88;5.40;;;;;;;;;;5055571;28;20025;-59
2023/10/03 07:53:47;;;;;;;10.32;4.90;;;;;;;;;;5054706;28;20025;-59
2023/10/03 07:56:33;;;;;;;6.72;4.95;;;;;;;;;;5054759;28;20053;-59
2023/10/03 07:59:02;;;;;;;9.13;5.07;;;;;;;;;;5055254;28;20043;-59
2023/10/03 08:01:29;;;;;;;9.93;5.82;;;;;;;;;;5054122;28;20032;-59
2023/10/03 08:03:55;;;;;;;6.82;4.50;;;;;;;;;;5054541;28;20029;-59
2023/10/03 08:06:23;;;;;;;6.22;3.85;;;;;;;;;;5055227;28;20025;-59
2023/10/03 08:08:49;;;;;;;7.03;4.57;;;;;;;;;;5054525;28;20037;-59
2023/10/03 08:11:15;;;;;;;5.50;3.95;;;;;;;;;;5055130;28;20049;-59
2023/10/03 08:13:41;;;;;;;7.45;4.70;;;;;;;;;;5054585;28;20142;-59
2023/10/03 08:16:08;;;;;;;7.35;4.50;;;;;;;;;;5054345;28;20025;-59
2023/10/03 08:18:36;;;;;;;6.47;4.80;;;;;;;;;;5054680;28;20028;-60
2023/10/03 08:21:04;;;;;;;5.80;3.33;;;;;;;;;;5054971;28;20044;-60
2023/10/03 08:23:33;;;;;;;5.97;3.53;;;;;;;;;;5054199;28;20463;-59
2023/10/03 08:26:02;;;;;;;7.80;4.43;;;;;;;;;;5054745;28;20028;-59
2023/10/03 08:28:29;;;;;;;5.07;3.80;;;;;;;;;;5054074;28;20024;-59
2023/10/03 08:30:55;;;;;;;5.47;3.83;;;;;;;;;;5054428;28;20017;-60
2023/10/03 08:33:22;;;;;;;4.85;3.88;;;;;;;;;;5054345;28;20029;-59
2023/10/03 08:35:48;;;;;;;8.55;3.88;;;;;;;;;;5053596;28;20479;-60
2023/10/03 08:38:15;;;;;;;5.63;3.90;;;;;;;;;;5053864;28;20490;-59
2023/10/03 08:40:49;;;;;;;5.82;4.18;;;;;;;;;;5054587;28;20036;-60
2023/10/03 08:43:16;;;;;;;4.93;3.63;;;;;;;;;;5054795;28;20025;-59
2023/10/03 08:45:43;;;;;;;7.93;3.90;;;;;;;;;;5054345;28;20021;-60
2023/10/03 08:48:10;;;;;;;7.50;4.10;;;;;;;;;;5054306;28;20032;-60
2023/10/03 08:50:41;;;;;;;15.65;4.03;;;;;;;;;;5054465;28;20347;-60
2023/10/03 08:53:13;;;;;;;5.93;3.88;;;;;;;;;;5053748;28;20025;-60
2023/10/03 08:55:58;;;;;;;5.75;4.00;;;;;;;;;;5054229;28;20053;-60
2023/10/03 08:58:25;;;;;;;5.32;3.25;;;;;;;;;;5054534;28;20223;-60
2023/10/03 09:00:58;;;;;;;9.57;3.70;;;;;;;;;;5054170;28;20025;-60
2023/10/03 09:03:25;;;;;;;6.32;4.22;;;;;;;;;;5054483;28;20035;-60
2023/10/03 09:05:51;;;;;;;5.18;3.50;;;;;;;;;;5054028;28;20029;-59
2023/10/03 09:08:17;;;;;;;5.85;3.63;;;;;;;;;;5054191;28;20360;-60
2023/10/03 09:10:55;;;;;;;6.78;4.32;;;;;;;;;;5054094;28;20021;-60
2023/10/03 09:13:25;;;;;;;7.50;4.22;;;;;;;;;;5054067;28;20417;-60
2023/10/03 09:16:08;;;;;;;5.63;3.50;;;;;;;;;;5053985;28;20055;-60
2023/10/03 09:18:41;;;;;;;5.35;4.05;;;;;;;;;;5053945;28;20031;-60
2023/10/03 09:21:07;;;;;;;5.53;3.75;;;;;;;;;;5053415;28;20025;-60
2023/10/03 09:23:40;;;;;;;7.38;3.72;;;;;;;;;;5053392;28;20036;-60
2023/10/03 09:26:07;;;;;;;4.38;3.70;;;;;;;;;;5053669;28;20017;-60
2023/10/03 09:28:36;;;;;;;6.03;3.58;;;;;;;;;;5053377;28;20134;-60
2023/10/03 09:31:09;;;;;;;6.50;4.35;;;;;;;;;;5053609;28;20021;-60
2023/10/03 09:33:38;;;;;;;6.55;4.30;;;;;;;;;;5053728;28;20091;-60
2023/10/03 09:36:04;;;;;;;6.80;4.35;;;;;;;;;;5053375;28;20045;-60
2023/10/03 09:38:46;;;;;;;6.13;3.28;;;;;;;;;;5053389;28;20112;-60
2023/10/03 09:41:17;;;;;;;4.63;3.03;;;;;;;;;;5053875;28;20363;-60
2023/10/03 09:43:44;;;;;;;;;;;;;;;;;;5054263;28;20075;-60
2023/10/03 09:46:10;;;;;;;4.75;3.63;;;;;;;;;;5053551;28;19905;-60
2023/10/03 09:48:37;;;;;;;5.65;3.63;;;;;;;;;;5053498;28;20032;-60
2023/10/03 09:51:05;;;;;;;4.38;3.63;;;;;;;;;;5053534;28;20104;-60
2023/10/03 09:53:32;;;;;;;4.45;2.90;;;;;;;;;;5053748;28;20073;-60
2023/10/03 09:56:00;;;;;;;5.05;2.95;;;;;;;;;;5053040;28;20029;-60
2023/10/03 09:58:31;;;;;;;8.98;3.88;;;;;;;;;;5053100;28;20048;-60
2023/10/03 10:00:57;;;;;;;7.20;4.10;;;;;;;;;;5053781;28;20021;-60
2023/10/03 10:03:36;;;;;;;4.07;3.38;;;;;;;;;;5053328;28;20478;-60
2023/10/03 10:06:19;;;;;;;5.28;3.28;;;;;;;;;;5053437;28;20063;-60
2023/10/03 10:08:49;;;;;;;4.20;3.45;;;;;;;;;;5052918;28;20104;-60
2023/10/03 10:11:15;;;;;;;5.18;3.58;;;;;;;;;;5053572;28;20022;-60
2023/10/03 10:14:01;;;;;;;4.75;3.42;;;;;;;;;;5052591;28;20466;-60
2023/10/03 10:16:28;;;;;;;6.38;3.92;;;;;;;;;;5053384;28;20463;-60
2023/10/03 10:18:55;;;;;;;4.70;3.83;;;;;;;;;;5052947;28;20025;-60
2023/10/03 10:21:21;;;;;;;6.22;4.13;;;;;;;;;;5053391;28;20028;-60
2023/10/03 10:24:06;;;;;;;4.00;3.25;;;;;;;;;;5054553;28;20459;-60
2023/10/03 10:26:34;;;;;;;5.13;3.15;;;;;;;;;;5057070;28;20021;-60
2023/10/03 10:29:11;;;;;;;4.60;3.78;;;;;;;;;;5056460;28;20040;-60
2023/10/03 10:31:44;;;;;;;11.38;4.00;;;;;;;;;;5057020;28;20367;-60
2023/10/03 10:34:22;;;;;;;4.68;3.33;;;;;;;;;;5056199;28;20032;-60
2023/10/03 10:37:12;;;;;;;4.15;3.05;;;;;;;;;;5056651;28;20551;-60
2023/10/03 10:39:56;;;;;;;7.72;3.30;;;;;;;;;;5057165;28;20033;-60
2023/10/03 10:42:26;;;;;;;4.57;3.72;;;;;;;;;;5056731;28;20029;-60
2023/10/03 10:45:09;;;;;;;6.10;3.42;;;;;;;;;;5056640;28;20021;-60
2023/10/03 10:47:35;;;;;;;4.82;3.22;;;;;;;;;;5056638;28;20421;-60
2023/10/03 10:50:01;;;;;;;5.00;3.47;;;;;;;;;;5056625;28;20076;-60
2023/10/03 10:52:34;;;;;;;9.77;3.67;;;;;;;;;;5056553;28;20051;-60
2023/10/03 10:55:01;;;;;;;6.55;3.15;;;;;;;;;;5056299;28;20025;-60
2023/10/03 10:57:28;;;;;;;5.15;3.53;;;;;;;;;;5055861;28;20040;-60
2023/10/03 10:59:55;;;;;;;4.65;3.63;;;;;;;;;;5056489;28;20028;-60
2023/10/03 11:02:22;;;;;;;4.15;2.97;;;;;;;;;;5055923;28;20032;-60
2023/10/03 11:04:58;;;;;;;7.47;4.10;;;;;;;;;;5056383;28;20025;-60
2023/10/03 11:07:26;;;;;;;4.75;3.22;;;;;;;;;;5056380;28;20057;-60
2023/10/03 11:09:52;;;;;;;4.75;3.38;;;;;;;;;;5055787;28;20470;-60
2023/10/03 11:12:28;;;;;;;5.82;4.20;;;;;;;;;;5055463;28;20466;-60
2023/10/03 11:14:55;;;;;;;8.23;3.55;;;;;;;;;;5056162;28;20319;-60
2023/10/03 11:17:22;;;;;;;4.20;2.97;;;;;;;;;;5056444;28;20025;-60
2023/10/03 11:19:51;;;;;;;4.32;3.10;;;;;;;;;;5055906;28;20455;-60
2023/10/03 11:22:18;;;;;;;7.73;4.20;;;;;;;;;;5055648;28;20033;-60
2023/10/03 11:24:47;;;;;;;5.05;3.25;;;;;;;;;;5056010;28;20052;-60
2023/10/03 11:27:23;;;;;;;6.93;4.22;;;;;;;;;;5055090;28;20471;-60
2023/10/03 11:29:48;;;;;;;5.25;3.25;;;;;;;;;;5055650;28;20037;-60
2023/10/03 11:32:25;;;;;;;4.15;3.58;;;;;;;;;;5055311;28;20024;-60
2023/10/03 11:34:54;;;;;;;5.13;3.67;;;;;;;;;;5054197;28;20059;-60
2023/10/03 11:37:45;;;;;;;6.22;3.70;;;;;;;;;;5055235;28;20021;-60
2023/10/03 11:40:18;;;;;;;4.78;3.40;;;;;;;;;;5055792;28;20036;-60
2023/10/03 11:42:44;;;;;;;4.47;3.50;;;;;;;;;;5055184;28;20467;-60
2023/10/03 11:45:14;;;;;;;5.35;3.65;;;;;;;;;;5055225;28;20039;-60
2023/10/03 11:47:40;;;;;;;5.18;3.55;;;;;;;;;;5055142;28;20070;-60
2023/10/03 11:50:06;;;;;;;4.93;3.78;;;;;;;;;;5054673;28;20029;-60
2023/10/03 11:52:32;;;;;;;8.25;3.60;;;;;;;;;;5055445;28;20027;-60
2023/10/03 11:54:58;;;;;;;5.63;3.60;;;;;;;;;;5054662;28;20107;-60
2023/10/03 11:57:24;;;;;;;6.25;3.85;;;;;;;;;;5055102;28;20028;-60
2023/10/03 11:59:50;;;;;;;4.70;3.50;;;;;;;;;;5054900;28;20040;-60
2023/10/03 12:02:17;;;;;;;5.47;3.65;;;;;;;;;;5055402;28;20021;-60
2023/10/03 12:04:43;;;;;;;4.25;3.17;;;;;;;;;;5054686;28;20032;-60
2023/10/03 12:07:11;;;;;;;9.30;4.45;;;;;;;;;;5055439;28;20025;-60
2023/10/03 12:09:37;;;;;;;5.20;3.72;;;;;;;;;;5054680;28;20082;-60
2023/10/03 12:12:03;;;;;;;5.88;3.78;;;;;;;;;;5054627;28;20025;-60
2023/10/03 12:14:29;;;;;;;5.00;3.78;;;;;;;;;;5054344;28;20028;-60
2023/10/03 12:16:55;;;;;;;5.97;4.13;;;;;;;;;;5054535;28;20525;-60
2023/10/03 12:19:21;;;;;;;6.35;3.90;;;;;;;;;;5055049;28;20370;-60
2023/10/03 12:21:47;;;;;;;4.90;3.88;;;;;;;;;;5054147;28;20021;-60
2023/10/03 12:24:14;;;;;;;5.10;3.75;;;;;;;;;;5054757;28;20036;-60
2023/10/03 12:26:41;;;;;;;5.55;4.25;;;;;;;;;;5054399;28;20467;-60
2023/10/03 12:29:06;;;;;;;6.00;3.55;;;;;;;;;;5054741;28;20087;-60
2023/10/03 12:31:33;;;;;;;4.68;3.95;;;;;;;;;;5054494;28;20463;-60
2023/10/03 12:34:01;;;;;;;4.57;3.50;;;;;;;;;;5054754;28;20071;-60
2023/10/03 12:36:28;;;;;;;5.53;4.47;;;;;;;;;;5054976;28;20102;-60
2023/10/03 12:38:54;;;;;;;6.28;4.13;;;;;;;;;;5053986;28;20073;-60
2023/10/03 12:41:20;;;;;;;5.25;3.88;;;;;;;;;;5054593;28;20025;-60
2023/10/03 12:43:47;;;;;;;8.10;4.03;;;;;;;;;;5054055;28;20058;-60
2023/10/03 12:46:16;;;;;;;5.63;3.60;;;;;;;;;;5053815;28;20106;-60
2023/10/03 12:48:42;;;;;;;7.30;4.80;;;;;;;;;;5054406;28;20021;-60
2023/10/03 12:51:08;;;;;;;6.07;4.47;;;;;;;;;;5054524;28;20025;-60
2023/10/03 12:53:37;;;;;;;7.53;3.63;;;;;;;;;;5053948;28;20463;-60
2023/10/03 12:56:08;;;;;;;5.43;4.53;;;;;;;;;;5054000;28;20354;-60
2023/10/03 12:58:34;;;;;;;;;;;;;;;;;;5054278;28;20024;-60
2023/10/03 13:01:00;;;;;;;4.72;4.22;;;;;;;;;;5054448;28;19999;-60
2023/10/03 13:03:26;;;;;;;7.15;4.40;;;;;;;;;;5053792;28;20025;-60
2023/10/03 13:05:55;;;;;;;8.07;5.22;;;;;;;;;;5053690;28;20022;-59
2023/10/03 13:08:21;;;;;;;10.80;4.95;;;;;;;;;;5053663;28;20021;-60
2023/10/03 13:10:48;;;;;;;5.55;4.63;;;;;;;;;;5054211;28;20032;-59
2023/10/03 13:13:14;;;;;;;12.48;5.18;;;;;;;;;;5054385;28;20490;-60
2023/10/03 13:15:40;;;;;;;8.63;4.05;;;;;;;;;;5053563;28;20142;-60
2023/10/03 13:18:06;;;;;;;8.00;4.25;;;;;;;;;;5053558;28;20116;-60
2023/10/03 13:20:32;;;;;;;5.65;4.60;;;;;;;;;;5053454;28;20542;-60
2023/10/03 13:22:58;;;;;;;7.38;3.80;;;;;;;;;;5053462;28;20098;-60
2023/10/03 13:25:24;;;;;;;5.97;4.45;;;;;;;;;;5053453;28;20108;-60
2023/10/03 13:27:52;;;;;;;5.93;4.45;;;;;;;;;;5053364;28;20465;-60
2023/10/03 13:30:18;;;;;;;5.28;3.53;;;;;;;;;;5053950;28;20371;-60
2023/10/03 13:32:51;;;;;;;6.75;4.80;;;;;;;;;;5054007;28;20025;-60
2023/10/03 13:35:17;;;;;;;5.45;3.90;;;;;;;;;;5053695;28;20356;-60
2023/10/03 13:37:46;;;;;;;5.68;4.70;;;;;;;;;;5053948;28;20340;-60
2023/10/03 13:40:12;;;;;;;5.20;4.28;;;;;;;;;;5053783;28;20037;-60
2023/10/03 13:42:38;;;;;;;9.82;5.40;;;;;;;;;;5053875;28;20363;-59
2023/10/03 13:45:05;;;;;;;6.93;5.00;;;;;;;;;;5053355;28;20052;-60
2023/10/03 13:47:31;;;;;;;6.97;5.03;;;;;;;;;;5053519;28;20116;-60
2023/10/03 13:49:57;;;;;;;5.65;4.35;;;;;;;;;;5053152;28;20029;-60
2023/10/03 13:52:23;;;;;;;7.35;4.70;;;;;;;;;;5053296;28;20104;-59
2023/10/03 13:54:49;;;;;;;7.05;4.97;;;;;;;;;;5052948;28;20025;-60
2023/10/03 13:57:16;;;;;;;5.18;4.40;;;;;;;;;;5052958;28;20108;-60
2023/10/03 13:59:44;;;;;;;6.85;4.28;;;;;;;;;;5056427;28;20059;-60
2023/10/03 14:02:13;;;;;;;5.88;4.65;;;;;;;;;;5057538;28;20025;-60
2023/10/03 14:04:39;;;;;;;6.00;5.03;;;;;;;;;;5057012;28;20079;-60
2023/10/03 14:07:05;;;;;;;8.40;4.63;;;;;;;;;;5057239;28;20025;-60
2023/10/03 14:09:32;;;;;;;5.68;3.92;;;;;;;;;;5057516;28;20029;-58
2023/10/03 14:12:04;;;;;;;5.18;4.15;;;;;;;;;;5056891;28;20028;-59
2023/10/03 14:14:30;;;;;;;9.02;4.00;;;;;;;;;;5056930;28;20033;-59
2023/10/03 14:16:58;;;;;;;5.15;3.55;;;;;;;;;;5056921;28;20068;-59
2023/10/03 14:19:25;;;;;;;15.32;4.80;;;;;;;;;;5056884;28;20139;-59
2023/10/03 14:21:51;;;;;;;6.13;3.63;;;;;;;;;;5056652;28;20463;-59
2023/10/03 14:24:17;;;;;;;5.28;3.97;;;;;;;;;;5057119;28;20025;-59
2023/10/03 14:26:43;;;;;;;5.45;4.45;;;;;;;;;;5056459;28;20102;-59
2023/10/03 14:29:09;;;;;;;5.30;3.85;;;;;;;;;;5056862;28;20032;-59
2023/10/03 14:31:36;;;;;;;5.47;4.10;;;;;;;;;;5057039;28;20032;-59
2023/10/03 14:34:02;;;;;;;7.75;4.38;;;;;;;;;;5056113;28;20071;-59
2023/10/03 14:36:29;;;;;;;5.53;3.42;;;;;;;;;;5056199;28;20443;-59
2023/10/03 14:38:57;;;;;;;5.63;3.22;;;;;;;;;;5057030;28;20123;-59
2023/10/03 14:41:23;;;;;;;7.43;3.30;;;;;;;;;;5056294;28;20063;-59
2023/10/03 14:43:49;;;;;;;7.13;3.53;;;;;;;;;;5056097;28;20459;-59
2023/10/03 14:46:15;;;;;;;6.97;3.35;;;;;;;;;;5056951;28;20063;-59